Portada
METAR-TAF:

METAR-TAF

Aeroports :

Campo Grande, Mato Grosso do Sul, Brasil

latitud: 20-28S, longitud: 054-40W, altitud: 567 m

Observació

L'informe es va fer fa 1 hora i 24 minuts, a les 01:00 UTC
Vent 8 kt del Nord
Temperatura 24°C
Humitat 50%
Pressió 1013 hPa
Visibilitat 10 km o més
sense núvols per sota de 1500 mi sense presència de cumulonimbus.

METAR: SBCG 180100Z 01008KT CAVOK 24/13 Q1013

Hora: 22:24 (02:24 UTC)

Pronòstic

L'informe es va fer fa 6 hores i 44 minuts, a les 19:40 UTC
Pronòstic vàlid del 18 a les 00 UTC al 18 a les 24 UTC
Vent 5 kt del Nord/Nord-Est
Visibilitat 10 km o més
sense núvols per sota de 1500 mi sense presència de cumulonimbus.
Evolucionant progressivament
l' 18 a les 13 UTC al 18 a les 15 UTC
Vent 12 kt del Nord/Nord-Oest
Evolucionant progressivament
l' 18 a les 19 UTC al 18 a les 21 UTC
Vent 5 kt del Nord/Nord-Est

TAF: SBCG 171940Z 1800/1824 02005KT CAVOK TN21/1810Z TX32/1818Z BECMG 1813/1815 34012KT BECMG 1819/1821 02005KT RMK PGN

Observacions i pronòstics meteorològics de més de 4000 aeroports (METAR i TAF).

Les estacions disponibles són els punts grocs i vermells al mapa.

Posi el ratolí al punt desitjat per veure el nom de l'estació.

Feu clic per veure les observacions i els pronòstics meteorològics.

Per canviar el mapa: feu clic els botons verds amb una creu de color negre per apropar; al botó verd amb un guió per allunyar la imatge; o en les fletxes verdes per a mapes adjacents.


METAR-TAF: